ULLI/LED METAR and TAF weather

Enter ICAO airport designator
Station Type Date Time Source
ULLI METAR 2019/01/21 21:30 UTC NOAA

ULLI 212130Z 27004MPS CAVOK M18/M20 Q1015 R28L/420350 R28R/820340 NOSIG


Station Type Date Time Source
ULLI Decoded METAR 2019/01/21 21:30 UTC NOAA

St. Peterburg, Russia (ULLI) 59-58N 030-18E 6M
Jan 21, 2019 - 04:30 PM EST / 2019.01.21 2130 UTC
Wind: from the W (270 degrees) at 9 MPH (8 KT):0
Visibility: greater than 7 mile(s):0
Temperature: 0 F (-18 C)
Windchill: -14 F (-26 C):2
Dew Point: -4 F (-20 C)
Relative Humidity: 84%
Pressure (altimeter): 29.97 in. Hg (1015 hPa)
ob: ULLI 212130Z 27004MPS CAVOK M18/M20 Q1015 R28L/420350 R28R/820340 NOSIG
cycle: 21

Station Type Date Time Source
ULLI TAF 2019/01/21 21:21 UTC NOAA

TAF TAF ULLI 212000Z 2121/2221 27003MPS 4000 -SN BR BKN011 BKN020
TEMPO 2121/2124 1000 -SN BR BKN003
TEMPO 2200/2208 0300 -SN FZFG OVC002
TEMPO 2208/2215 24003MPS 2100 -SHSN BR BKN007 BKN015CB
TEMPO 2215/2221 1000 -SN BR BKN003 BKN015


Example: see airport list